Time;durP1;ratioP1;P1;durP2;ratioP2;P2;SDS_P1;SDS_P2;PMS_P1;PMS_P2;Temp;Humidity;BMP_temperature;BMP_pressure;BME280_temperature;BME280_humidity;BME280_pressure;Samples;Min_cycle;Max_cycle;Signal;HPM_P1;HPM_P2
2024/02/05 00:00:37;;;;;;;6.80;2.20;;;;;;;6.26;84.94;99892.09;105820;1292;67428;-57
2024/02/05 00:03:23;;;;;;;124.60;24.70;;;;;;;6.23;85.43;99894.88;105681;1291;72447;-58
2024/02/05 00:06:10;;;;;;;356.90;153.40;;;;;;;6.23;85.95;99894.02;105838;1294;58748;-57
2024/02/05 00:08:57;;;;;;;250.40;131.90;;;;;;;6.21;86.69;99883.79;105795;1292;58674;-56
2024/02/05 00:11:43;;;;;;;49.40;19.80;;;;;;;6.18;87.10;99887.41;105761;1292;73836;-58
2024/02/05 00:14:29;;;;;;;12.80;4.20;;;;;;;6.13;87.65;99883.70;105853;1292;67338;-57
2024/02/05 00:17:15;;;;;;;2.20;1.70;;;;;;;6.12;87.50;99884.73;105865;1294;71413;-57
2024/02/05 00:20:03;;;;;;;4.20;1.80;;;;;;;6.08;88.27;99879.98;105865;1292;58559;-58
2024/02/05 00:22:49;;;;;;;6.60;2.30;;;;;;;6.05;88.30;99880.69;105825;1292;59097;-57
2024/02/05 00:25:37;;;;;;;2.70;1.40;;;;;;;6.01;88.74;99874.05;105843;1292;73634;-57
2024/02/05 00:28:23;;;;;;;2.70;1.90;;;;;;;5.97;87.89;99871.19;105858;1292;68048;-56
2024/02/05 00:31:09;;;;;;;4.70;1.60;;;;;;;6.01;88.70;99875.93;105823;1292;71291;-57
2024/02/05 00:33:55;;;;;;;2.70;1.40;;;;;;;6.01;88.75;99868.23;105852;1292;58962;-58
2024/02/05 00:36:42;;;;;;;1.50;1.10;;;;;;;5.96;88.54;99862.63;105858;1292;59774;-58
2024/02/05 00:39:28;;;;;;;2.70;1.10;;;;;;;5.96;89.23;99861.77;105939;1292;72576;-57
2024/02/05 00:42:14;;;;;;;804.20;271.10;;;;;;;5.94;89.62;99861.80;105953;1291;68842;-57
2024/02/05 00:45:00;;;;;;;3.40;1.50;;;;;;;5.95;90.27;99861.44;105857;1295;72599;-58
2024/02/05 00:47:46;;;;;;;3.70;1.80;;;;;;;5.91;90.04;99856.02;105882;1295;58253;-58
2024/02/05 00:50:32;;;;;;;3.00;1.00;;;;;;;5.90;89.61;99853.96;105905;1293;59057;-57
2024/02/05 00:53:18;;;;;;;1.50;1.40;;;;;;;5.92;90.30;99857.55;105804;1291;73702;-56
2024/02/05 00:56:05;;;;;;;4.70;1.30;;;;;;;5.91;90.70;99856.36;105867;1296;69059;-58
2024/02/05 00:58:51;;;;;;;94.10;21.70;;;;;;;5.89;90.69;99846.44;105879;1293;72502;-58
2024/02/05 01:01:37;;;;;;;5.10;1.60;;;;;;;5.87;91.00;99845.06;105824;1291;58539;-58
2024/02/05 01:04:23;;;;;;;2.40;1.30;;;;;;;5.86;90.45;99837.21;105876;1293;58945;-55
2024/02/05 01:07:09;;;;;;;1.70;1.10;;;;;;;5.88;90.72;99831.56;105893;1292;73970;-58
2024/02/05 01:09:55;;;;;;;3.00;1.30;;;;;;;5.89;90.75;99832.24;105948;1292;68106;-58
2024/02/05 01:12:41;;;;;;;1.20;0.90;;;;;;;5.89;91.10;99823.35;105923;1292;70605;-58
2024/02/05 01:15:27;;;;;;;4.10;1.20;;;;;;;5.89;90.99;99824.20;105890;1292;59525;-58
2024/02/05 01:18:13;;;;;;;1.80;1.00;;;;;;;5.87;91.36;99819.94;105889;1292;60911;-58
2024/02/05 01:20:59;;;;;;;2.00;1.30;;;;;;;5.89;91.17;99821.14;105899;1291;73336;-58
2024/02/05 01:23:45;;;;;;;1.60;1.40;;;;;;;5.87;90.93;99818.04;105862;1292;69052;-57
2024/02/05 01:26:31;;;;;;;2.00;1.10;;;;;;;5.89;91.15;99815.14;105858;1292;70959;-58
2024/02/05 01:29:17;;;;;;;1.10;1.00;;;;;;;5.90;91.34;99818.56;105891;1292;58736;-57
2024/02/05 01:32:03;;;;;;;1.70;1.20;;;;;;;5.88;91.47;99826.77;105892;1291;60068;-58
2024/02/05 01:34:49;;;;;;;1.80;1.00;;;;;;;5.88;91.86;99821.81;105885;1292;72616;-57
2024/02/05 01:37:37;;;;;;;1.70;0.90;;;;;;;5.87;92.31;99816.85;105901;1292;68033;-57
2024/02/05 01:40:23;;;;;;;3.90;1.50;;;;;;;5.86;92.37;99815.83;105848;1292;73266;-57
2024/02/05 01:43:09;;;;;;;220.90;105.90;;;;;;;5.84;92.68;99810.04;105893;1293;57560;-58
2024/02/05 01:45:55;;;;;;;4.40;1.20;;;;;;;5.85;92.74;99809.34;105923;1295;59784;-57
2024/02/05 01:48:43;;;;;;;3.50;1.30;;;;;;;5.85;92.50;99803.36;105863;1292;72607;-57
2024/02/05 01:51:36;;;;;;;4.90;1.00;;;;;;;5.82;92.48;99802.52;105748;1291;67533;-57
2024/02/05 01:54:23;;;;;;;1.50;1.30;;;;;;;5.83;93.10;99800.81;105862;1292;71506;-57
2024/02/05 01:57:13;;;;;;;2.10;1.80;;;;;;;5.82;93.24;99806.64;105868;1291;58542;-57
2024/02/05 02:00:00;;;;;;;2.10;1.40;;;;;;;5.81;93.55;99808.36;105939;1292;60267;-58
2024/02/05 02:02:46;;;;;;;2.30;1.10;;;;;;;5.83;93.69;99802.87;105851;1292;72531;-57
2024/02/05 02:05:32;;;;;;;2.80;1.50;;;;;;;5.85;93.51;99789.33;105894;1295;68496;-57
2024/02/05 02:08:19;;;;;;;;;;;;;;;5.82;94.04;99785.44;105895;1292;73004;-58
2024/02/05 02:11:05;;;;;;;1.30;1.00;;;;;;;5.78;94.55;99790.09;105874;1297;58566;-58
2024/02/05 02:13:51;;;;;;;1.00;0.90;;;;;;;5.79;94.22;99782.38;105903;1296;58147;-58
2024/02/05 02:16:38;;;;;;;2.30;1.10;;;;;;;5.78;94.79;99785.46;105928;1292;73633;-58
2024/02/05 02:19:51;;;;;;;2.60;0.90;;;;;;;5.78;94.82;99784.77;105905;1292;68486;-57
2024/02/05 02:22:50;;;;;;;1.40;1.10;;;;;;;5.78;94.73;99778.63;105895;1292;71066;-57
2024/02/05 02:25:39;;;;;;;466.00;200.40;;;;;;;5.80;94.67;99770.57;101826;1291;5003848;-58
2024/02/05 02:28:25;;;;;;;1.10;0.80;;;;;;;5.79;94.65;99765.45;105879;1292;58863;-58
2024/02/05 02:31:17;;;;;;;9.00;2.20;;;;;;;5.80;94.62;99768.17;105903;1295;72334;-57
2024/02/05 02:34:18;;;;;;;0.60;0.60;;;;;;;5.80;95.18;99762.02;105881;1296;67458;-58
2024/02/05 02:37:08;;;;;;;0.90;0.60;;;;;;;5.78;95.24;99759.13;105787;1292;71126;-58
2024/02/05 02:40:09;;;;;;;4.40;0.70;;;;;;;5.78;95.59;99753.48;105857;1292;58447;-58
2024/02/05 02:43:03;;;;;;;1.10;0.60;;;;;;;5.78;95.40;99748.36;105888;1295;60560;-57
2024/02/05 02:45:52;;;;;;;0.50;0.50;;;;;;;5.78;95.50;99750.58;105879;1292;74953;-57
2024/02/05 02:48:38;;;;;;;920.50;286.80;;;;;;;5.81;95.34;99753.80;105940;1291;68526;-57
2024/02/05 02:51:25;;;;;;;0.50;0.50;;;;;;;5.83;95.85;99746.77;105916;1292;72482;-58
2024/02/05 02:54:11;;;;;;;0.50;0.40;;;;;;;5.84;95.51;99746.08;105867;1295;58413;-57
2024/02/05 02:56:57;;;;;;;1.20;0.70;;;;;;;5.86;95.62;99737.84;105848;1293;60209;-58
2024/02/05 02:59:43;;;;;;;0.80;0.40;;;;;;;5.86;95.97;99732.04;105848;1292;72666;-57
2024/02/05 03:02:29;;;;;;;0.30;0.30;;;;;;;5.87;96.48;99721.23;105917;1293;68057;-58
2024/02/05 03:05:15;;;;;;;19.40;4.50;;;;;;;5.88;96.42;99720.71;105909;1291;72403;-58
2024/02/05 03:08:02;;;;;;;0.40;0.40;;;;;;;5.89;96.30;99719.02;105840;1295;58210;-58
2024/02/05 03:10:48;;;;;;;0.50;0.30;;;;;;;5.92;96.56;99719.33;105857;1291;60179;-57
2024/02/05 03:13:34;;;;;;;1.20;0.30;;;;;;;5.93;96.59;99719.50;105909;1293;72390;-57
2024/02/05 03:16:20;;;;;;;0.40;0.20;;;;;;;5.93;96.76;99721.04;105890;1292;68161;-57
2024/02/05 03:19:06;;;;;;;0.10;0.10;;;;;;;5.93;96.63;99724.11;105882;1292;71385;-57
2024/02/05 03:21:52;;;;;;;0.50;0.50;;;;;;;5.94;96.08;99724.27;105936;1292;58757;-57
2024/02/05 03:24:38;;;;;;;2.60;2.50;;;;;;;5.98;96.11;99738.94;105905;1291;60761;-57
2024/02/05 03:27:24;;;;;;;0.50;0.20;;;;;;;6.01;96.49;99738.73;105568;1292;446539;-58
2024/02/05 03:30:10;;;;;;;0.60;0.30;;;;;;;6.00;96.64;99741.48;105840;1293;67477;-57
2024/02/05 03:32:58;;;;;;;12.70;11.40;;;;;;;6.03;96.78;99744.86;105927;1292;73932;-58
2024/02/05 03:35:44;;;;;;;0.30;0.30;;;;;;;6.05;96.93;99743.30;105928;1291;58537;-58
2024/02/05 03:38:30;;;;;;;0.20;0.10;;;;;;;6.06;97.08;99742.79;105917;1293;59813;-57
2024/02/05 03:41:16;;;;;;;0.70;0.20;;;;;;;6.05;97.06;99751.52;105964;1291;73527;-57
2024/02/05 03:44:02;;;;;;;0.40;0.20;;;;;;;6.07;96.75;99750.30;105914;1294;68100;-57
2024/02/05 03:46:48;;;;;;;0.80;0.30;;;;;;;6.08;96.40;99748.23;105924;1291;72135;-57
2024/02/05 03:49:34;;;;;;;0.30;0.10;;;;;;;6.11;96.54;99751.80;105950;1292;58568;-57
2024/02/05 03:52:20;;;;;;;0.30;0.20;;;;;;;6.17;96.84;99754.64;105956;1292;59076;-56
2024/02/05 03:55:06;;;;;;;0.10;0.10;;;;;;;6.18;97.03;99753.60;105929;1290;72722;-58
2024/02/05 03:58:06;;;;;;;0.20;0.20;;;;;;;6.18;96.62;99752.74;105926;1292;67816;-56
2024/02/05 04:00:52;;;;;;;0.30;0.30;;;;;;;6.20;97.23;99752.89;105965;1292;71254;-58
2024/02/05 04:03:38;;;;;;;0.10;0.10;;;;;;;6.20;97.25;99751.86;105895;1291;58782;-57
2024/02/05 04:06:24;;;;;;;0.50;0.30;;;;;;;6.22;97.57;99753.36;105930;1291;60210;-57
2024/02/05 04:09:10;;;;;;;0.20;0.20;;;;;;;6.23;97.61;99753.34;105811;1292;72796;-57
2024/02/05 04:11:56;;;;;;;1.40;1.10;;;;;;;6.23;97.44;99752.00;104645;1291;67333;-57
2024/02/05 04:14:42;;;;;;;0.40;0.10;;;;;;;6.27;97.46;99757.55;104606;1292;71454;-57
2024/02/05 04:17:29;;;;;;;10.80;2.20;;;;;;;6.28;97.67;99755.83;104649;1290;61366;-57
2024/02/05 04:20:15;;;;;;;9.80;4.10;;;;;;;6.29;97.87;99752.40;104623;1291;62889;-56
2024/02/05 04:23:01;;;;;;;0.10;0.10;;;;;;;6.28;97.61;99749.15;104623;1292;73534;-54
2024/02/05 04:25:48;;;;;;;0.20;0.20;;;;;;;6.27;97.60;99746.95;104765;1295;67230;-56
2024/02/05 04:28:35;;;;;;;0.60;0.20;;;;;;;6.28;97.39;99750.87;104717;1293;72935;-56
2024/02/05 04:31:21;;;;;;;0.10;0.10;;;;;;;6.28;97.43;99748.64;104648;1291;61150;-55
2024/02/05 04:34:07;;;;;;;0.20;0.20;;;;;;;6.28;97.45;99747.10;104655;1292;60556;-54
2024/02/05 04:36:53;;;;;;;0.80;0.30;;;;;;;6.30;97.38;99744.52;104595;1291;72467;-54
2024/02/05 04:39:40;;;;;;;0.30;0.30;;;;;;;6.31;97.68;99740.56;104496;1292;70418;-56
2024/02/05 04:42:26;;;;;;;0.30;0.30;;;;;;;6.30;97.99;99736.11;104607;1291;72497;-55
2024/02/05 04:45:12;;;;;;;0.30;0.10;;;;;;;6.29;97.53;99731.52;104647;1292;60443;-56
2024/02/05 04:47:58;;;;;;;0.30;0.30;;;;;;;6.30;97.71;99735.09;104629;1292;61464;-53
2024/02/05 04:50:45;;;;;;;0.10;0.10;;;;;;;6.31;97.75;99740.05;104616;1293;75280;-54
2024/02/05 04:53:31;;;;;;;0.40;0.30;;;;;;;6.31;98.25;99741.25;104673;1295;69241;-55
2024/02/05 04:56:18;;;;;;;0.20;0.20;;;;;;;6.30;98.61;99741.60;104708;1292;72758;-54
2024/02/05 04:59:04;;;;;;;0.20;0.20;;;;;;;6.30;98.51;99738.52;104697;1292;60376;-56
2024/02/05 05:01:50;;;;;;;0.30;0.30;;;;;;;6.29;98.02;99744.86;104592;1292;60386;-55
2024/02/05 05:04:41;;;;;;;0.10;0.10;;;;;;;6.34;98.65;99746.02;104483;1291;71376;-55
2024/02/05 05:07:27;;;;;;;0.80;0.20;;;;;;;6.34;98.71;99753.88;104614;1292;67085;-53
2024/02/05 05:10:13;;;;;;;0.20;0.20;;;;;;;6.37;98.70;99748.88;104648;1292;72943;-56
2024/02/05 05:13:03;;;;;;;0.30;0.30;;;;;;;6.39;98.72;99749.36;104495;1293;60592;-55
2024/02/05 05:15:49;;;;;;;0.10;0.10;;;;;;;6.38;98.59;99751.61;105909;1291;59223;-56
2024/02/05 05:18:35;;;;;;;0.20;0.20;;;;;;;6.43;98.98;99750.52;105890;1291;73426;-55
2024/02/05 05:21:21;;;;;;;0.20;0.20;;;;;;;6.48;99.39;99755.08;105806;1291;68971;-56
2024/02/05 05:24:07;;;;;;;0.50;0.40;;;;;;;6.51;99.02;99765.48;104980;1292;72563;-56
2024/02/05 05:26:53;;;;;;;0.10;0.10;;;;;;;6.54;98.88;99768.69;104644;1292;60384;-53
2024/02/05 05:29:39;;;;;;;0.20;0.20;;;;;;;6.54;98.94;99778.79;104550;1291;61043;-55
2024/02/05 05:32:26;;;;;;;0.30;0.20;;;;;;;6.55;99.20;99781.86;104688;1292;72430;-53
2024/02/05 05:35:12;;;;;;;0.50;0.20;;;;;;;6.56;99.20;99783.73;104607;1293;68578;-55
2024/02/05 05:37:58;;;;;;;17.70;8.20;;;;;;;6.55;99.34;99782.38;104576;1292;74053;-54
2024/02/05 05:40:45;;;;;;;0.10;0.10;;;;;;;6.57;99.41;99781.48;104624;1291;60443;-54
2024/02/05 05:43:31;;;;;;;0.70;0.20;;;;;;;6.57;98.97;99787.83;104575;1291;61660;-56
2024/02/05 05:46:17;;;;;;;0.10;0.10;;;;;;;6.57;98.76;99792.11;104618;1292;73665;-54
2024/02/05 05:49:03;;;;;;;0.80;0.80;;;;;;;6.58;98.76;99792.60;104647;1292;69284;-54
2024/02/05 05:51:50;;;;;;;0.50;0.30;;;;;;;6.61;99.37;99792.23;104638;1292;71218;-57
2024/02/05 05:54:36;;;;;;;0.10;0.10;;;;;;;6.61;99.47;99798.22;104543;1292;61613;-55
2024/02/05 05:57:22;;;;;;;0.20;0.20;;;;;;;6.60;98.96;99793.09;104679;1292;60463;-56
2024/02/05 06:00:09;;;;;;;0.20;0.20;;;;;;;6.63;99.35;99796.99;104616;1292;72510;-56
2024/02/05 06:02:56;;;;;;;0.30;0.30;;;;;;;6.63;99.45;99801.10;105991;1291;66399;-57
2024/02/05 06:05:45;;;;;;;0.30;0.30;;;;;;;6.62;99.40;99798.72;105816;1294;71691;-56
2024/02/05 06:08:34;;;;;;;0.40;0.40;;;;;;;6.64;99.21;99802.64;105899;1294;58290;-57
2024/02/05 06:11:20;;;;;;;0.40;0.40;;;;;;;6.66;99.41;99796.11;105927;1291;60988;-57
2024/02/05 06:14:06;;;;;;;0.50;0.50;;;;;;;6.69;99.89;99801.55;105921;1291;73210;-57
2024/02/05 06:16:53;;;;;;;0.50;0.30;;;;;;;6.70;99.57;99809.23;105874;1292;68306;-57
2024/02/05 06:19:38;;;;;;;;;;;;;;;6.70;99.51;99813.70;105911;1291;71879;-57
2024/02/05 06:22:24;;;;;;;0.40;0.40;;;;;;;6.70;99.07;99815.23;105996;1290;58699;-58
2024/02/05 06:25:11;;;;;;;2.10;1.10;;;;;;;6.70;99.15;99817.80;105931;1291;58962;-58
2024/02/05 06:27:57;;;;;;;0.80;0.80;;;;;;;6.71;99.47;99815.55;105045;1291;73407;-54
2024/02/05 06:30:49;;;;;;;0.40;0.40;;;;;;;6.75;99.48;99821.17;104552;1292;68710;-55
2024/02/05 06:33:35;;;;;;;0.40;0.30;;;;;;;6.76;99.38;99817.02;104588;1295;73404;-56
2024/02/05 06:36:21;;;;;;;;;;;;;;;6.75;99.21;99829.55;104609;1292;60614;-56
2024/02/05 06:39:10;;;;;;;;;;;;;;;6.74;99.01;99829.73;104542;1292;60405;-55
2024/02/05 06:41:56;;;;;;;8.10;6.30;;;;;;;6.74;99.08;99840.02;104521;1292;72637;-55
2024/02/05 06:44:45;;;;;;;1.20;1.00;;;;;;;6.73;98.98;99842.26;104621;1291;67193;-55
2024/02/05 06:47:31;;;;;;;0.70;0.70;;;;;;;6.71;98.92;99847.92;104605;1291;72206;-56
2024/02/05 06:50:18;;;;;;;1.20;0.30;;;;;;;6.71;99.11;99845.88;104591;1291;60886;-53
2024/02/05 06:53:04;;;;;;;;;;;;;;;6.70;99.00;99850.34;104684;1291;60587;-56
2024/02/05 06:55:50;;;;;;;0.90;0.30;;;;;;;6.71;98.88;99849.98;104574;1292;73257;-54
2024/02/05 06:58:36;;;;;;;9.20;1.30;;;;;;;6.72;99.08;99849.30;104618;1292;66784;-53
2024/02/05 07:01:23;;;;;;;0.50;0.30;;;;;;;6.73;99.22;99851.16;104566;1292;71753;-54
2024/02/05 07:04:09;;;;;;;0.20;0.20;;;;;;;6.73;99.14;99857.16;104628;1292;61259;-55
2024/02/05 07:06:55;;;;;;;0.70;0.70;;;;;;;6.73;98.98;99855.95;104449;1292;153468;-56
2024/02/05 07:09:41;;;;;;;0.90;0.20;;;;;;;6.74;98.95;99856.46;105688;1291;73514;-55
2024/02/05 07:12:27;;;;;;;0.60;0.30;;;;;;;6.75;99.05;99857.80;105808;1294;67450;-56
2024/02/05 07:15:15;;;;;;;0.30;0.30;;;;;;;6.78;99.12;99858.60;105821;1292;71652;-57
2024/02/05 07:18:01;;;;;;;8.80;1.30;;;;;;;6.80;99.25;99860.46;105875;1292;58133;-56
2024/02/05 07:20:47;;;;;;;0.60;0.20;;;;;;;6.84;99.24;99863.66;105823;1295;58662;-56
2024/02/05 07:23:35;;;;;;;1.00;0.30;;;;;;;6.87;99.29;99865.16;105906;1291;73515;-57
2024/02/05 07:26:22;;;;;;;0.60;0.40;;;;;;;6.88;99.41;99860.70;105867;1291;67277;-56
2024/02/05 07:29:08;;;;;;;0.90;0.20;;;;;;;6.93;99.41;99858.40;105839;1291;71304;-55
2024/02/05 07:31:54;;;;;;;0.30;0.20;;;;;;;6.96;99.17;99863.17;105869;1291;58503;-55
2024/02/05 07:34:40;;;;;;;;;;;;;;;6.99;99.08;99863.47;105847;1291;59984;-56
2024/02/05 07:37:26;;;;;;;10.80;4.20;;;;;;;7.05;99.04;99868.19;105886;1291;73641;-56
2024/02/05 07:40:13;;;;;;;1.00;0.50;;;;;;;7.07;98.95;99873.48;105918;1291;69517;-57
2024/02/05 07:42:59;;;;;;;0.60;0.50;;;;;;;7.08;98.99;99873.45;105903;1291;72438;-56
2024/02/05 07:45:44;;;;;;;0.60;0.60;;;;;;;7.12;98.96;99879.41;105862;1291;58278;-56
2024/02/05 07:48:31;;;;;;;1.50;0.50;;;;;;;7.15;98.89;99881.94;105834;1294;59869;-56
2024/02/05 07:51:17;;;;;;;0.20;0.20;;;;;;;7.18;98.88;99888.08;105881;1291;73831;-55
2024/02/05 07:54:03;;;;;;;0.10;0.10;;;;;;;7.22;98.76;99897.09;105848;1291;67680;-56
2024/02/05 07:56:49;;;;;;;0.20;0.10;;;;;;;7.23;98.50;99899.13;105794;1292;71569;-55
2024/02/05 07:59:35;;;;;;;0.30;0.10;;;;;;;7.25;98.55;99902.70;105786;1292;58453;-55
2024/02/05 08:02:22;;;;;;;0.70;0.40;;;;;;;7.25;98.41;99911.27;105836;1292;60180;-55
2024/02/05 08:05:08;;;;;;;0.20;0.20;;;;;;;7.27;97.75;99908.83;105886;1291;74365;-55
2024/02/05 08:07:55;;;;;;;1.70;1.60;;;;;;;7.30;97.86;99913.22;105862;1291;68672;-56
2024/02/05 08:10:41;;;;;;;0.30;0.20;;;;;;;7.31;97.70;99917.33;105861;1291;71731;-56
2024/02/05 08:13:27;;;;;;;1.40;0.20;;;;;;;7.32;97.46;99920.92;105918;1294;58470;-56
2024/02/05 08:16:13;;;;;;;0.60;0.20;;;;;;;7.28;97.10;99928.69;105908;1292;58797;-53
2024/02/05 08:18:59;;;;;;;0.40;0.10;;;;;;;7.24;96.83;99928.42;105899;1291;74092;-55
2024/02/05 08:21:45;;;;;;;493.60;173.10;;;;;;;7.17;96.70;99937.77;105836;1292;68732;-56
2024/02/05 08:24:31;;;;;;;0.40;0.20;;;;;;;7.11;96.51;99941.12;105844;1292;72067;-55
2024/02/05 08:27:17;;;;;;;2.60;0.20;;;;;;;7.07;96.76;99947.34;105827;1292;58131;-55
2024/02/05 08:30:04;;;;;;;0.40;0.20;;;;;;;7.04;96.78;99948.90;105855;1291;60669;-56
2024/02/05 08:32:50;;;;;;;;;;;;;;;7.02;96.94;99956.46;105850;1292;72616;-55
2024/02/05 08:35:36;;;;;;;0.00;0.00;;;;;;;7.01;96.95;99951.01;105875;1291;68247;-57
2024/02/05 08:38:22;;;;;;;0.70;0.20;;;;;;;6.99;96.72;99948.97;105838;1295;71245;-56
2024/02/05 08:41:12;;;;;;;0.30;0.10;;;;;;;6.98;96.94;99953.09;105914;1291;58564;-54
2024/02/05 08:43:58;;;;;;;0.20;0.20;;;;;;;7.04;97.19;99950.98;105873;1291;58980;-55
2024/02/05 08:46:44;;;;;;;0.20;0.10;;;;;;;7.05;96.77;99948.05;105877;1291;72159;-54
2024/02/05 08:49:30;;;;;;;0.30;0.30;;;;;;;7.06;96.90;99951.98;105723;1292;68998;-55
2024/02/05 08:52:16;;;;;;;0.10;0.10;;;;;;;7.09;96.59;99953.65;105852;1292;71167;-56
2024/02/05 08:55:02;;;;;;;0.20;0.10;;;;;;;7.12;96.80;99957.55;105846;1291;58416;-56
2024/02/05 08:57:51;;;;;;;0.10;0.10;;;;;;;7.17;96.66;99953.89;105687;1293;60334;-52
2024/02/05 09:00:37;;;;;;;0.40;0.10;;;;;;;7.18;96.71;99953.54;105838;1292;73424;-55
2024/02/05 09:03:23;;;;;;;0.50;0.20;;;;;;;7.19;96.71;99954.21;105856;1292;67168;-55
2024/02/05 09:06:09;;;;;;;0.20;0.10;;;;;;;7.19;96.50;99956.61;105801;1295;72498;-57
2024/02/05 09:08:55;;;;;;;0.10;0.10;;;;;;;7.15;96.15;99952.36;105796;1294;58722;-57
2024/02/05 09:11:41;;;;;;;1.50;0.30;;;;;;;7.13;96.39;99954.80;105833;1291;60035;-57
2024/02/05 09:14:27;;;;;;;0.60;0.30;;;;;;;7.11;96.46;99954.14;105851;1295;72555;-57
2024/02/05 09:17:13;;;;;;;0.60;0.10;;;;;;;7.10;96.46;99957.06;105889;1291;68510;-57
2024/02/05 09:19:59;;;;;;;0.40;0.30;;;;;;;7.05;96.49;99963.13;105893;1292;73017;-57
2024/02/05 09:22:47;;;;;;;0.40;0.40;;;;;;;7.00;96.47;99960.61;105863;1292;58104;-57
2024/02/05 09:25:33;;;;;;;0.90;0.30;;;;;;;6.93;96.54;99960.52;105878;1291;60726;-57
2024/02/05 09:28:20;;;;;;;0.20;0.10;;;;;;;6.93;96.69;99968.58;105841;1292;73801;-57
2024/02/05 09:31:06;;;;;;;2.60;0.30;;;;;;;6.93;96.74;99965.66;105903;1291;68042;-57
2024/02/05 09:33:52;;;;;;;1.00;0.20;;;;;;;6.96;96.85;99964.09;105805;1292;72580;-56
2024/02/05 09:36:38;;;;;;;0.10;0.10;;;;;;;6.96;96.89;99966.13;105899;1291;58547;-56
2024/02/05 09:39:24;;;;;;;2.80;0.80;;;;;;;6.97;96.91;99964.92;105901;1291;58742;-56
2024/02/05 09:42:11;;;;;;;0.10;0.10;;;;;;;6.97;96.96;99961.85;105815;1292;73831;-57
2024/02/05 09:44:59;;;;;;;0.80;0.20;;;;;;;7.00;97.03;99961.64;105866;1292;67155;-56
2024/02/05 09:47:46;;;;;;;0.20;0.10;;;;;;;7.04;97.11;99958.34;105934;1292;71275;-56
2024/02/05 09:50:35;;;;;;;0.60;0.20;;;;;;;7.07;97.04;99962.41;105841;1291;58517;-57
2024/02/05 09:53:21;;;;;;;0.50;0.20;;;;;;;7.13;97.13;99965.42;105935;1292;58898;-55
2024/02/05 09:56:07;;;;;;;;;;;;;;;7.16;97.09;99960.23;105768;1291;72546;-55
2024/02/05 09:58:54;;;;;;;0.70;0.20;;;;;;;7.19;97.10;99960.04;105813;1293;68719;-56
2024/02/05 10:01:41;;;;;;;2.50;0.20;;;;;;;7.21;97.10;99966.00;105878;1292;71106;-57
2024/02/05 10:04:28;;;;;;;0.50;0.40;;;;;;;7.21;97.05;99968.41;105899;1292;58664;-56
2024/02/05 10:07:17;;;;;;;0.30;0.30;;;;;;;7.21;97.14;99968.23;104811;1292;60378;-54
2024/02/05 10:10:04;;;;;;;0.90;0.60;;;;;;;7.21;97.19;99975.27;104564;1292;71703;-56
2024/02/05 10:12:52;;;;;;;0.80;0.30;;;;;;;7.22;97.22;99970.47;105006;1292;68090;-56
2024/02/05 10:15:41;;;;;;;0.60;0.40;;;;;;;7.20;97.15;99970.48;104594;1291;71209;-55
2024/02/05 10:18:27;;;;;;;0.80;0.50;;;;;;;7.19;97.21;99967.73;105858;1291;58248;-56
2024/02/05 10:21:13;;;;;;;2.00;0.70;;;;;;;7.22;97.32;99963.77;105915;1292;59682;-56
2024/02/05 10:23:59;;;;;;;0.90;0.30;;;;;;;7.15;97.29;99968.48;105920;1291;72347;-56
2024/02/05 10:26:45;;;;;;;0.60;0.20;;;;;;;7.14;97.31;99965.58;105859;1292;68663;-56
2024/02/05 10:29:31;;;;;;;1.90;0.20;;;;;;;7.12;97.39;99962.52;105827;1292;70289;-56
2024/02/05 10:32:22;;;;;;;0.50;0.40;;;;;;;7.10;97.41;99962.71;105869;1292;58400;-53
2024/02/05 10:35:08;;;;;;;0.40;0.30;;;;;;;7.12;97.40;99960.98;105831;1292;58754;-55
2024/02/05 10:38:14;;;;;;;0.60;0.30;;;;;;;7.07;97.30;99957.78;105926;1292;74049;-54
2024/02/05 10:41:00;;;;;;;0.50;0.30;;;;;;;7.09;97.40;99954.84;105879;1292;69067;-56
2024/02/05 10:43:46;;;;;;;2.90;0.40;;;;;;;7.13;97.33;99957.89;105853;1291;71388;-56
2024/02/05 10:46:33;;;;;;;0.60;0.20;;;;;;;7.11;97.51;99956.54;105861;1292;58184;-52
2024/02/05 10:49:19;;;;;;;0.20;0.20;;;;;;;7.05;97.42;99952.31;105899;1291;60166;-55
2024/02/05 10:52:06;;;;;;;3.20;2.70;;;;;;;7.00;97.30;99951.88;105909;1291;73444;-56
2024/02/05 10:54:52;;;;;;;0.20;0.20;;;;;;;6.91;97.16;99953.17;105904;1291;67363;-55
2024/02/05 10:57:38;;;;;;;0.50;0.30;;;;;;;6.96;97.53;99956.55;105775;1292;71441;-56
2024/02/05 11:00:24;;;;;;;;;;;;;;;7.08;97.56;99952.98;105872;1292;58640;-56
2024/02/05 11:03:17;;;;;;;0.70;0.30;;;;;;;7.14;97.43;99957.69;105847;1295;59899;-55
2024/02/05 11:06:07;;;;;;;0.60;0.30;;;;;;;7.09;97.17;99957.76;105714;1292;74238;-55
2024/02/05 11:08:53;;;;;;;1.10;0.20;;;;;;;7.07;97.06;99956.07;105899;1291;67275;-54
2024/02/05 11:11:41;;;;;;;2.70;0.50;;;;;;;7.03;97.21;99951.15;105859;1292;72736;-55
2024/02/05 11:14:33;;;;;;;1.20;0.20;;;;;;;7.09;97.32;99951.07;105822;1292;58360;-56
2024/02/05 11:17:19;;;;;;;1.20;0.50;;;;;;;7.16;97.44;99949.95;105792;1291;59876;-55
2024/02/05 11:20:12;;;;;;;0.50;0.30;;;;;;;7.20;97.30;99945.27;105884;1291;72504;-53
2024/02/05 11:22:59;;;;;;;0.80;0.80;;;;;;;7.22;97.29;99944.57;105877;1291;67969;-55
2024/02/05 11:25:47;;;;;;;0.50;0.50;;;;;;;7.19;97.16;99943.41;105970;1295;71388;-55
2024/02/05 11:28:33;;;;;;;0.50;0.20;;;;;;;7.16;97.20;99939.52;105887;1291;58229;-56
2024/02/05 11:31:24;;;;;;;0.70;0.30;;;;;;;7.12;97.05;99947.78;105876;1291;58900;-55
2024/02/05 11:34:11;;;;;;;0.50;0.30;;;;;;;7.11;97.20;99949.86;105848;1292;73699;-55
2024/02/05 11:36:57;;;;;;;1.00;0.50;;;;;;;7.13;97.35;99956.85;105795;1291;67530;-56
2024/02/05 11:39:46;;;;;;;0.60;0.50;;;;;;;7.14;97.30;99953.92;105821;1292;71532;-55
2024/02/05 11:42:33;;;;;;;0.80;0.40;;;;;;;7.07;97.12;99945.96;105865;1292;58933;-54
2024/02/05 11:45:19;;;;;;;0.60;0.30;;;;;;;7.05;97.17;99949.23;105873;1291;58742;-54
2024/02/05 11:48:05;;;;;;;0.40;0.20;;;;;;;7.06;97.36;99942.20;105917;1291;72514;-56
2024/02/05 11:50:51;;;;;;;0.30;0.20;;;;;;;7.11;97.32;99943.68;105894;1292;68982;-54
2024/02/05 11:53:44;;;;;;;1.80;0.50;;;;;;;7.15;97.39;99932.33;105919;1291;72543;-56
2024/02/05 11:56:30;;;;;;;1.90;0.20;;;;;;;7.18;97.21;99933.14;105927;1292;58487;-52
2024/02/05 11:59:16;;;;;;;1.90;0.20;;;;;;;7.19;97.19;99936.91;105901;1292;59689;-55
2024/02/05 12:02:02;;;;;;;0.40;0.30;;;;;;;7.17;97.23;99931.45;105910;1290;73064;-56
2024/02/05 12:04:48;;;;;;;0.20;0.10;;;;;;;7.17;97.17;99937.95;105929;1290;68947;-54
2024/02/05 12:07:34;;;;;;;0.60;0.20;;;;;;;7.15;97.21;99944.33;105894;1292;71125;-54
2024/02/05 12:10:21;;;;;;;0.50;0.30;;;;;;;7.14;97.26;99933.52;105903;1292;58616;-55
2024/02/05 12:13:08;;;;;;;0.60;0.20;;;;;;;7.10;97.24;99938.04;105887;1295;58846;-56
2024/02/05 12:15:54;;;;;;;1.30;0.50;;;;;;;7.07;97.16;99945.80;105537;1292;73781;-54
2024/02/05 12:18:40;;;;;;;0.50;0.50;;;;;;;7.12;97.37;99944.88;105799;1292;96176;-55
2024/02/05 12:21:30;;;;;;;0.40;0.20;;;;;;;7.14;97.41;99946.73;105861;1291;70387;-55
2024/02/05 12:24:16;;;;;;;0.90;0.40;;;;;;;7.10;97.37;99946.27;105777;1292;57987;-55
2024/02/05 12:27:03;;;;;;;3.00;0.90;;;;;;;7.13;97.43;99947.25;105856;1291;59083;-56
2024/02/05 12:29:49;;;;;;;3.90;0.40;;;;;;;7.17;97.44;99947.04;105963;1292;73606;-55
2024/02/05 12:32:35;;;;;;;0.70;0.40;;;;;;;7.17;97.40;99953.21;105981;1291;68125;-56
2024/02/05 12:35:22;;;;;;;0.60;0.30;;;;;;;7.13;97.25;99948.63;105955;1291;72381;-55
2024/02/05 12:38:08;;;;;;;0.50;0.20;;;;;;;7.12;97.37;99947.80;105938;1291;58168;-55
2024/02/05 12:40:57;;;;;;;0.40;0.20;;;;;;;7.11;97.27;99943.67;105820;1292;59041;-56
2024/02/05 12:43:43;;;;;;;0.60;0.20;;;;;;;7.09;97.33;99944.57;105864;1292;72371;-56
2024/02/05 12:46:29;;;;;;;0.50;0.20;;;;;;;7.09;97.37;99948.84;105777;1295;68132;-55
2024/02/05 12:49:15;;;;;;;;;;;;;;;7.05;97.34;99947.70;105916;1292;72984;-53
2024/02/05 12:52:03;;;;;;;;;;;;;;;7.06;97.43;99948.55;105912;1292;59282;-52
2024/02/05 12:54:49;;;;;;;1.70;0.10;;;;;;;7.05;97.36;99947.19;105923;1291;58619;-56
2024/02/05 12:57:35;;;;;;;1.90;0.20;;;;;;;7.01;97.26;99941.59;105967;1294;73217;-55
2024/02/05 13:00:22;;;;;;;0.20;0.20;;;;;;;6.99;97.42;99946.06;105948;1290;67412;-54
2024/02/05 13:03:08;;;;;;;;;;;;;;;6.99;97.46;99945.38;105972;1291;72206;-53
2024/02/05 13:05:54;;;;;;;;;;;;;;;6.99;97.51;99948.63;105926;1292;58990;-55